sensor_id;sensor_type;location;lat;lon;timestamp;pressure;altitude;pressure_sealevel;temperature;humidity
5691;BME280;2870;42.680;23.364;2023-01-28T00:00:16;94490.06;;;1.82;92.87
5691;BME280;2870;42.680;23.364;2023-01-28T00:02:43;94486.13;;;1.96;92.17
5691;BME280;2870;42.680;23.364;2023-01-28T00:05:10;94484.25;;;1.55;92.79
5691;BME280;2870;42.680;23.364;2023-01-28T00:07:36;94495.03;;;1.59;93.64
5691;BME280;2870;42.680;23.364;2023-01-28T00:10:06;94491.28;;;1.81;92.79
5691;BME280;2870;42.680;23.364;2023-01-28T00:12:32;94495.28;;;1.85;92.29
5691;BME280;2870;42.680;23.364;2023-01-28T00:14:59;94504.34;;;2.10;92.21
5691;BME280;2870;42.680;23.364;2023-01-28T00:17:26;94506.41;;;2.29;90.76
5691;BME280;2870;42.680;23.364;2023-01-28T00:19:53;94517.88;;;2.38;89.17
5691;BME280;2870;42.680;23.364;2023-01-28T00:22:20;94517.44;;;2.10;89.52
5691;BME280;2870;42.680;23.364;2023-01-28T00:24:47;94516.44;;;2.07;89.40
5691;BME280;2870;42.680;23.364;2023-01-28T00:27:15;94509.25;;;1.69;90.78
5691;BME280;2870;42.680;23.364;2023-01-28T00:29:42;94521.81;;;1.70;91.15
5691;BME280;2870;42.680;23.364;2023-01-28T00:32:09;94520.19;;;1.55;91.60
5691;BME280;2870;42.680;23.364;2023-01-28T00:34:36;94519.03;;;1.40;92.10
5691;BME280;2870;42.680;23.364;2023-01-28T00:37:03;94526.03;;;1.46;92.49
5691;BME280;2870;42.680;23.364;2023-01-28T00:39:30;94521.75;;;1.15;92.38
5691;BME280;2870;42.680;23.364;2023-01-28T00:41:57;94528.09;;;1.40;93.09
5691;BME280;2870;42.680;23.364;2023-01-28T00:44:25;94524.00;;;1.47;93.00
5691;BME280;2870;42.680;23.364;2023-01-28T00:46:52;94532.91;;;1.64;91.91
5691;BME280;2870;42.680;23.364;2023-01-28T00:49:19;94529.41;;;1.64;92.06
5691;BME280;2870;42.680;23.364;2023-01-28T00:51:46;94527.34;;;1.70;91.04
5691;BME280;2870;42.680;23.364;2023-01-28T00:54:13;94532.69;;;1.92;91.46
5691;BME280;2870;42.680;23.364;2023-01-28T00:56:40;94530.94;;;1.65;91.14
5691;BME280;2870;42.680;23.364;2023-01-28T00:59:07;94526.16;;;1.65;91.19
5691;BME280;2870;42.680;23.364;2023-01-28T01:01:35;94510.94;;;1.47;91.91
5691;BME280;2870;42.680;23.364;2023-01-28T01:04:02;94531.09;;;1.42;91.91
5691;BME280;2870;42.680;23.364;2023-01-28T01:06:29;94531.25;;;1.55;91.57
5691;BME280;2870;42.680;23.364;2023-01-28T01:08:57;94533.66;;;1.70;93.03
5691;BME280;2870;42.680;23.364;2023-01-28T01:11:24;94526.03;;;1.46;92.47
5691;BME280;2870;42.680;23.364;2023-01-28T01:13:52;94533.25;;;1.55;92.52
5691;BME280;2870;42.680;23.364;2023-01-28T01:16:19;94538.25;;;1.56;93.35
5691;BME280;2870;42.680;23.364;2023-01-28T01:18:49;94533.44;;;1.63;91.93
5691;BME280;2870;42.680;23.364;2023-01-28T01:21:18;94536.97;;;1.93;92.34
5691;BME280;2870;42.680;23.364;2023-01-28T01:23:46;94527.28;;;1.75;90.58
5691;BME280;2870;42.680;23.364;2023-01-28T01:26:14;94533.41;;;1.68;91.87
5691;BME280;2870;42.680;23.364;2023-01-28T01:28:41;94536.16;;;1.68;91.90
5691;BME280;2870;42.680;23.364;2023-01-28T01:31:11;94550.59;;;1.55;91.58
5691;BME280;2870;42.680;23.364;2023-01-28T01:33:39;94541.38;;;1.77;91.44
5691;BME280;2870;42.680;23.364;2023-01-28T01:36:08;94541.22;;;1.64;91.32
5691;BME280;2870;42.680;23.364;2023-01-28T01:38:35;94535.03;;;1.82;91.38
5691;BME280;2870;42.680;23.364;2023-01-28T01:41:04;94538.56;;;1.83;91.82
5691;BME280;2870;42.680;23.364;2023-01-28T01:43:46;94547.75;;;1.67;91.16
5691;BME280;2870;42.680;23.364;2023-01-28T01:46:15;94538.50;;;1.89;92.05
5691;BME280;2870;42.680;23.364;2023-01-28T01:48:43;94549.56;;;1.58;91.55
5691;BME280;2870;42.680;23.364;2023-01-28T01:51:13;94554.75;;;1.68;91.76
5691;BME280;2870;42.680;23.364;2023-01-28T01:53:44;94550.81;;;1.57;91.42
5691;BME280;2870;42.680;23.364;2023-01-28T01:56:13;94542.47;;;1.33;92.63
5691;BME280;2870;42.680;23.364;2023-01-28T01:58:44;94544.59;;;1.51;92.54
5691;BME280;2870;42.680;23.364;2023-01-28T02:01:13;94543.38;;;1.77;93.25
5691;BME280;2870;42.680;23.364;2023-01-28T02:03:45;94549.63;;;1.83;92.40
5691;BME280;2870;42.680;23.364;2023-01-28T02:06:14;94554.84;;;1.56;92.40
5691;BME280;2870;42.680;23.364;2023-01-28T02:08:41;94552.53;;;1.30;92.52
5691;BME280;2870;42.680;23.364;2023-01-28T02:11:10;94558.56;;;1.65;93.20
5691;BME280;2870;42.680;23.364;2023-01-28T02:13:42;94561.84;;;1.93;91.90
5691;BME280;2870;42.680;23.364;2023-01-28T02:16:11;94561.66;;;1.85;91.81
5691;BME280;2870;42.680;23.364;2023-01-28T02:18:38;94556.03;;;1.67;91.58
5691;BME280;2870;42.680;23.364;2023-01-28T02:21:40;94567.03;;;1.42;92.17
5691;BME280;2870;42.680;23.364;2023-01-28T02:24:22;94547.06;;;1.25;92.25
5691;BME280;2870;42.680;23.364;2023-01-28T02:27:10;94566.69;;;1.51;92.59
5691;BME280;2870;42.680;23.364;2023-01-28T02:29:43;94556.38;;;1.88;91.91
5691;BME280;2870;42.680;23.364;2023-01-28T02:32:16;94565.25;;;1.75;91.29
5691;BME280;2870;42.680;23.364;2023-01-28T02:34:47;94564.81;;;1.71;91.50
5691;BME280;2870;42.680;23.364;2023-01-28T02:37:21;94559.63;;;1.20;91.90
5691;BME280;2870;42.680;23.364;2023-01-28T02:39:50;94563.31;;;1.34;91.88
5691;BME280;2870;42.680;23.364;2023-01-28T02:42:22;94561.13;;;1.21;91.77
5691;BME280;2870;42.680;23.364;2023-01-28T02:44:52;94566.22;;;1.47;91.90
5691;BME280;2870;42.680;23.364;2023-01-28T02:47:18;94570.34;;;1.71;91.48
5691;BME280;2870;42.680;23.364;2023-01-28T02:50:06;94567.59;;;1.95;90.75
5691;BME280;2870;42.680;23.364;2023-01-28T02:52:55;94574.50;;;1.83;89.87
5691;BME280;2870;42.680;23.364;2023-01-28T02:55:47;94570.81;;;1.39;90.74
5691;BME280;2870;42.680;23.364;2023-01-28T02:58:25;94573.75;;;1.47;91.34
5691;BME280;2870;42.680;23.364;2023-01-28T03:01:07;94565.09;;;1.31;92.01
5691;BME280;2870;42.680;23.364;2023-01-28T03:03:42;94576.38;;;1.33;91.44
5691;BME280;2870;42.680;23.364;2023-01-28T03:06:14;94574.94;;;1.21;92.25
5691;BME280;2870;42.680;23.364;2023-01-28T03:08:45;94574.69;;;1.61;92.35
5691;BME280;2870;42.680;23.364;2023-01-28T03:11:34;94571.63;;;1.64;91.39
5691;BME280;2870;42.680;23.364;2023-01-28T03:14:19;94566.81;;;1.35;91.03
5691;BME280;2870;42.680;23.364;2023-01-28T03:17:09;94576.47;;;1.52;91.83
5691;BME280;2870;42.680;23.364;2023-01-28T03:19:55;94582.09;;;1.77;89.55
5691;BME280;2870;42.680;23.364;2023-01-28T03:22:41;94577.59;;;1.74;89.18
5691;BME280;2870;42.680;23.364;2023-01-28T03:25:29;94574.19;;;1.21;89.92
5691;BME280;2870;42.680;23.364;2023-01-28T03:28:16;94584.44;;;1.31;90.06
5691;BME280;2870;42.680;23.364;2023-01-28T03:31:05;94590.31;;;1.52;90.54
5691;BME280;2870;42.680;23.364;2023-01-28T03:33:52;94583.69;;;1.67;89.95
5691;BME280;2870;42.680;23.364;2023-01-28T03:36:37;94583.84;;;1.44;89.19
5691;BME280;2870;42.680;23.364;2023-01-28T03:39:14;94585.41;;;1.34;89.92
5691;BME280;2870;42.680;23.364;2023-01-28T03:41:42;94584.09;;;1.41;90.05
5691;BME280;2870;42.680;23.364;2023-01-28T03:44:08;94589.50;;;1.22;90.73
5691;BME280;2870;42.680;23.364;2023-01-28T03:46:53;94585.97;;;1.63;91.30
5691;BME280;2870;42.680;23.364;2023-01-28T03:49:21;94590.53;;;1.60;89.75
5691;BME280;2870;42.680;23.364;2023-01-28T03:51:48;94590.38;;;1.41;89.70
5691;BME280;2870;42.680;23.364;2023-01-28T03:54:14;94593.47;;;1.32;91.18
5691;BME280;2870;42.680;23.364;2023-01-28T03:56:41;94588.19;;;1.28;90.84
5691;BME280;2870;42.680;23.364;2023-01-28T03:59:08;94600.25;;;1.31;92.38
5691;BME280;2870;42.680;23.364;2023-01-28T04:01:35;94599.34;;;1.12;90.59
5691;BME280;2870;42.680;23.364;2023-01-28T04:04:02;94581.25;;;1.16;91.03
5691;BME280;2870;42.680;23.364;2023-01-28T04:06:30;94601.22;;;0.92;91.06
5691;BME280;2870;42.680;23.364;2023-01-28T04:08:56;94602.41;;;1.08;91.69
5691;BME280;2870;42.680;23.364;2023-01-28T04:11:24;94595.25;;;1.24;91.65
5691;BME280;2870;42.680;23.364;2023-01-28T04:13:52;94603.06;;;1.61;91.35
5691;BME280;2870;42.680;23.364;2023-01-28T04:16:19;94601.09;;;1.56;90.90
5691;BME280;2870;42.680;23.364;2023-01-28T04:18:46;94603.47;;;1.35;90.50
5691;BME280;2870;42.680;23.364;2023-01-28T04:21:13;94604.78;;;1.64;90.01
5691;BME280;2870;42.680;23.364;2023-01-28T04:23:41;94610.13;;;1.92;89.21
5691;BME280;2870;42.680;23.364;2023-01-28T04:26:08;94601.94;;;1.75;89.19
5691;BME280;2870;42.680;23.364;2023-01-28T04:28:35;94610.53;;;1.72;88.85
5691;BME280;2870;42.680;23.364;2023-01-28T04:31:01;94615.28;;;1.77;90.25
5691;BME280;2870;42.680;23.364;2023-01-28T04:33:28;94622.00;;;1.46;89.98
5691;BME280;2870;42.680;23.364;2023-01-28T04:35:55;94616.09;;;1.30;90.43
5691;BME280;2870;42.680;23.364;2023-01-28T04:38:22;94625.97;;;1.56;90.71
5691;BME280;2870;42.680;23.364;2023-01-28T04:40:51;94624.03;;;1.45;90.52
5691;BME280;2870;42.680;23.364;2023-01-28T04:43:19;94628.66;;;1.26;90.75
5691;BME280;2870;42.680;23.364;2023-01-28T04:45:45;94635.94;;;1.23;89.94
5691;BME280;2870;42.680;23.364;2023-01-28T04:48:13;94636.06;;;1.53;91.01
5691;BME280;2870;42.680;23.364;2023-01-28T04:50:40;94635.44;;;1.72;90.13
5691;BME280;2870;42.680;23.364;2023-01-28T04:53:07;94638.75;;;1.65;89.71
5691;BME280;2870;42.680;23.364;2023-01-28T04:55:34;94640.59;;;1.86;89.02
5691;BME280;2870;42.680;23.364;2023-01-28T04:58:03;94640.91;;;1.77;89.36
5691;BME280;2870;42.680;23.364;2023-01-28T05:00:30;94645.56;;;1.11;90.05
5691;BME280;2870;42.680;23.364;2023-01-28T05:02:56;94641.38;;;1.40;91.46
5691;BME280;2870;42.680;23.364;2023-01-28T05:05:23;94651.28;;;1.19;90.92
5691;BME280;2870;42.680;23.364;2023-01-28T05:07:50;94649.53;;;1.21;92.08
5691;BME280;2870;42.680;23.364;2023-01-28T05:10:18;94651.91;;;0.89;92.47
5691;BME280;2870;42.680;23.364;2023-01-28T05:12:45;94660.41;;;1.02;92.73
5691;BME280;2870;42.680;23.364;2023-01-28T05:15:14;94659.25;;;1.33;93.14
5691;BME280;2870;42.680;23.364;2023-01-28T05:17:41;94669.25;;;0.84;92.93
5691;BME280;2870;42.680;23.364;2023-01-28T05:20:09;94675.78;;;0.81;93.15
5691;BME280;2870;42.680;23.364;2023-01-28T05:22:36;94666.91;;;1.11;93.56
5691;BME280;2870;42.680;23.364;2023-01-28T05:25:04;94670.69;;;1.02;93.31
5691;BME280;2870;42.680;23.364;2023-01-28T05:27:31;94675.50;;;0.90;92.98
5691;BME280;2870;42.680;23.364;2023-01-28T05:29:58;94676.47;;;1.10;93.86
5691;BME280;2870;42.680;23.364;2023-01-28T05:32:27;94673.72;;;0.98;93.24
5691;BME280;2870;42.680;23.364;2023-01-28T05:34:54;94680.25;;;1.01;92.91
5691;BME280;2870;42.680;23.364;2023-01-28T05:37:20;94677.03;;;0.86;92.28
5691;BME280;2870;42.680;23.364;2023-01-28T05:39:47;94670.47;;;0.94;93.01
5691;BME280;2870;42.680;23.364;2023-01-28T05:42:14;94671.97;;;0.95;91.87
5691;BME280;2870;42.680;23.364;2023-01-28T05:44:43;94679.44;;;1.12;92.27
5691;BME280;2870;42.680;23.364;2023-01-28T05:47:09;94675.97;;;1.00;91.38
5691;BME280;2870;42.680;23.364;2023-01-28T05:49:38;94685.16;;;1.30;91.33
5691;BME280;2870;42.680;23.364;2023-01-28T05:52:05;94678.53;;;1.50;91.71
5691;BME280;2870;42.680;23.364;2023-01-28T05:54:31;94687.25;;;1.66;90.20
5691;BME280;2870;42.680;23.364;2023-01-28T05:56:58;94688.50;;;1.65;90.27
5691;BME280;2870;42.680;23.364;2023-01-28T05:59:25;94695.94;;;1.34;89.92
5691;BME280;2870;42.680;23.364;2023-01-28T06:01:52;94695.50;;;1.19;90.52
5691;BME280;2870;42.680;23.364;2023-01-28T06:04:19;94703.75;;;1.24;91.08
5691;BME280;2870;42.680;23.364;2023-01-28T06:06:47;94715.44;;;0.89;91.26
5691;BME280;2870;42.680;23.364;2023-01-28T06:09:14;94710.88;;;1.09;91.71
5691;BME280;2870;42.680;23.364;2023-01-28T06:11:40;94715.34;;;1.12;91.82
5691;BME280;2870;42.680;23.364;2023-01-28T06:14:08;94727.25;;;1.59;90.66
5691;BME280;2870;42.680;23.364;2023-01-28T06:16:35;94726.50;;;1.47;91.38
5691;BME280;2870;42.680;23.364;2023-01-28T06:19:02;94721.81;;;1.37;90.29
5691;BME280;2870;42.680;23.364;2023-01-28T06:21:29;94730.97;;;1.03;90.11
5691;BME280;2870;42.680;23.364;2023-01-28T06:23:58;94729.44;;;1.08;89.96
5691;BME280;2870;42.680;23.364;2023-01-28T06:26:24;94728.88;;;1.32;91.58
5691;BME280;2870;42.680;23.364;2023-01-28T06:28:51;94736.75;;;0.94;90.98
5691;BME280;2870;42.680;23.364;2023-01-28T06:31:18;94741.13;;;1.42;91.65
5691;BME280;2870;42.680;23.364;2023-01-28T06:33:45;94747.16;;;1.41;89.86
5691;BME280;2870;42.680;23.364;2023-01-28T06:36:12;94740.81;;;1.57;90.25
5691;BME280;2870;42.680;23.364;2023-01-28T06:38:39;94748.47;;;1.28;89.84
5691;BME280;2870;42.680;23.364;2023-01-28T06:41:07;94754.19;;;1.36;89.66
5691;BME280;2870;42.680;23.364;2023-01-28T06:43:34;94753.44;;;1.36;89.83
5691;BME280;2870;42.680;23.364;2023-01-28T06:46:01;94744.81;;;1.62;90.42
5691;BME280;2870;42.680;23.364;2023-01-28T06:48:28;94763.19;;;1.53;89.34
5691;BME280;2870;42.680;23.364;2023-01-28T06:50:55;94763.72;;;1.99;88.78
5691;BME280;2870;42.680;23.364;2023-01-28T06:53:22;94771.59;;;1.83;89.01
5691;BME280;2870;42.680;23.364;2023-01-28T06:55:49;94770.47;;;1.51;89.57
5691;BME280;2870;42.680;23.364;2023-01-28T06:58:17;94769.81;;;1.28;89.23
5691;BME280;2870;42.680;23.364;2023-01-28T07:00:44;94783.78;;;1.52;90.36
5691;BME280;2870;42.680;23.364;2023-01-28T07:03:10;94771.75;;;1.50;90.00
5691;BME280;2870;42.680;23.364;2023-01-28T07:05:37;94780.78;;;1.56;90.66
5691;BME280;2870;42.680;23.364;2023-01-28T07:08:04;94780.53;;;1.54;89.95
5691;BME280;2870;42.680;23.364;2023-01-28T07:10:31;94779.88;;;1.25;89.56
5691;BME280;2870;42.680;23.364;2023-01-28T07:12:58;94791.75;;;1.73;90.16
5691;BME280;2870;42.680;23.364;2023-01-28T07:15:26;94786.81;;;2.07;88.08
5691;BME280;2870;42.680;23.364;2023-01-28T07:17:53;94792.41;;;2.37;86.98
5691;BME280;2870;42.680;23.364;2023-01-28T07:20:20;94798.06;;;2.15;87.55
5691;BME280;2870;42.680;23.364;2023-01-28T07:22:46;94807.03;;;1.85;86.51
5691;BME280;2870;42.680;23.364;2023-01-28T07:25:14;94805.19;;;1.41;88.05
5691;BME280;2870;42.680;23.364;2023-01-28T07:27:46;94806.59;;;1.70;89.26
5691;BME280;2870;42.680;23.364;2023-01-28T07:30:14;94811.78;;;1.26;88.69
5691;BME280;2870;42.680;23.364;2023-01-28T07:32:43;94815.09;;;1.02;89.98
5691;BME280;2870;42.680;23.364;2023-01-28T07:35:10;94822.09;;;1.09;90.15
5691;BME280;2870;42.680;23.364;2023-01-28T07:37:37;94814.53;;;1.21;90.68
5691;BME280;2870;42.680;23.364;2023-01-28T07:40:05;94816.03;;;1.27;89.82
5691;BME280;2870;42.680;23.364;2023-01-28T07:42:32;94820.28;;;1.34;89.23
5691;BME280;2870;42.680;23.364;2023-01-28T07:44:59;94829.53;;;1.53;89.23
5691;BME280;2870;42.680;23.364;2023-01-28T07:47:26;94830.25;;;1.65;89.92
5691;BME280;2870;42.680;23.364;2023-01-28T07:49:54;94827.38;;;1.93;88.34
5691;BME280;2870;42.680;23.364;2023-01-28T07:52:20;94827.47;;;1.71;87.81
5691;BME280;2870;42.680;23.364;2023-01-28T07:54:47;94831.59;;;2.05;88.08
5691;BME280;2870;42.680;23.364;2023-01-28T07:57:14;94832.69;;;2.32;86.89
5691;BME280;2870;42.680;23.364;2023-01-28T07:59:47;94839.91;;;2.05;87.90
5691;BME280;2870;42.680;23.364;2023-01-28T08:02:14;94838.53;;;1.71;88.36
5691;BME280;2870;42.680;23.364;2023-01-28T08:04:41;94839.03;;;1.69;87.75
5691;BME280;2870;42.680;23.364;2023-01-28T08:07:09;94840.50;;;1.76;88.08
5691;BME280;2870;42.680;23.364;2023-01-28T08:09:36;94820.75;;;1.55;88.64
5691;BME280;2870;42.680;23.364;2023-01-28T08:12:03;94852.47;;;2.06;88.45
5691;BME280;2870;42.680;23.364;2023-01-28T08:14:30;94845.31;;;1.70;87.37
5691;BME280;2870;42.680;23.364;2023-01-28T08:16:57;94850.59;;;1.68;87.96
5691;BME280;2870;42.680;23.364;2023-01-28T08:19:23;94856.31;;;1.86;88.07
5691;BME280;2870;42.680;23.364;2023-01-28T08:21:50;94853.34;;;1.73;87.56
5691;BME280;2870;42.680;23.364;2023-01-28T08:24:18;94851.84;;;1.72;88.60
5691;BME280;2870;42.680;23.364;2023-01-28T08:26:47;94857.72;;;1.29;87.92
5691;BME280;2870;42.680;23.364;2023-01-28T08:29:13;94852.41;;;1.54;87.90
5691;BME280;2870;42.680;23.364;2023-01-28T08:31:40;94859.25;;;1.30;88.42
5691;BME280;2870;42.680;23.364;2023-01-28T08:34:07;94863.16;;;1.63;88.18
5691;BME280;2870;42.680;23.364;2023-01-28T08:36:34;94851.28;;;1.85;88.65
5691;BME280;2870;42.680;23.364;2023-01-28T08:39:01;94861.66;;;1.68;86.78
5691;BME280;2870;42.680;23.364;2023-01-28T08:41:30;94860.94;;;2.20;87.43
5691;BME280;2870;42.680;23.364;2023-01-28T08:43:56;94854.78;;;2.38;85.95
5691;BME280;2870;42.680;23.364;2023-01-28T08:46:24;94856.69;;;2.13;84.07
5691;BME280;2870;42.680;23.364;2023-01-28T08:48:51;94863.56;;;2.48;86.01
5691;BME280;2870;42.680;23.364;2023-01-28T08:51:18;94854.34;;;2.34;85.23
5691;BME280;2870;42.680;23.364;2023-01-28T08:53:44;94854.97;;;2.51;84.52
5691;BME280;2870;42.680;23.364;2023-01-28T08:56:11;94863.13;;;2.32;84.92
5691;BME280;2870;42.680;23.364;2023-01-28T08:58:40;94869.75;;;2.18;83.96
5691;BME280;2870;42.680;23.364;2023-01-28T09:01:06;94874.69;;;2.36;86.16
5691;BME280;2870;42.680;23.364;2023-01-28T09:03:33;94871.16;;;2.42;84.79
5691;BME280;2870;42.680;23.364;2023-01-28T09:06:00;94865.47;;;2.23;84.85
5691;BME280;2870;42.680;23.364;2023-01-28T09:08:27;94863.16;;;2.74;83.91
5691;BME280;2870;42.680;23.364;2023-01-28T09:10:54;94872.13;;;2.50;82.63
5691;BME280;2870;42.680;23.364;2023-01-28T09:13:22;94868.13;;;2.45;84.28
5691;BME280;2870;42.680;23.364;2023-01-28T09:15:50;94866.69;;;2.69;84.21
5691;BME280;2870;42.680;23.364;2023-01-28T09:18:17;94866.59;;;3.15;82.14
5691;BME280;2870;42.680;23.364;2023-01-28T09:20:44;94872.22;;;3.34;82.67
5691;BME280;2870;42.680;23.364;2023-01-28T09:23:11;94873.97;;;3.07;82.57
5691;BME280;2870;42.680;23.364;2023-01-28T09:25:39;94871.16;;;2.36;83.38
5691;BME280;2870;42.680;23.364;2023-01-28T09:28:06;94867.19;;;1.68;85.48
5691;BME280;2870;42.680;23.364;2023-01-28T09:30:33;94872.44;;;2.35;85.51
5691;BME280;2870;42.680;23.364;2023-01-28T09:33:02;94866.41;;;2.72;84.43
5691;BME280;2870;42.680;23.364;2023-01-28T09:35:28;94873.09;;;2.88;82.85
5691;BME280;2870;42.680;23.364;2023-01-28T09:37:56;94868.94;;;2.29;83.41
5691;BME280;2870;42.680;23.364;2023-01-28T09:40:32;94873.88;;;2.47;83.71
5691;BME280;2870;42.680;23.364;2023-01-28T09:43:24;94874.34;;;2.10;85.26
5691;BME280;2870;42.680;23.364;2023-01-28T09:45:55;94868.72;;;2.21;85.73
5691;BME280;2870;42.680;23.364;2023-01-28T09:48:28;94871.59;;;2.04;85.72
5691;BME280;2870;42.680;23.364;2023-01-28T09:50:57;94875.78;;;2.22;86.29
5691;BME280;2870;42.680;23.364;2023-01-28T09:53:28;94874.97;;;2.33;85.16
5691;BME280;2870;42.680;23.364;2023-01-28T09:55:57;94871.81;;;2.53;85.08
5691;BME280;2870;42.680;23.364;2023-01-28T09:58:26;94876.53;;;2.23;85.60
5691;BME280;2870;42.680;23.364;2023-01-28T10:00:56;94875.16;;;2.46;85.89
5691;BME280;2870;42.680;23.364;2023-01-28T10:03:40;94870.78;;;2.15;85.65
5691;BME280;2870;42.680;23.364;2023-01-28T10:06:19;94855.84;;;2.35;85.40
5691;BME280;2870;42.680;23.364;2023-01-28T10:09:20;94861.84;;;2.39;86.18
5691;BME280;2870;42.680;23.364;2023-01-28T10:12:09;94862.16;;;2.30;85.70
5691;BME280;2870;42.680;23.364;2023-01-28T10:14:48;94864.00;;;2.57;86.74
5691;BME280;2870;42.680;23.364;2023-01-28T10:17:22;94856.72;;;2.90;84.15
5691;BME280;2870;42.680;23.364;2023-01-28T10:19:56;94857.00;;;2.51;84.59
5691;BME280;2870;42.680;23.364;2023-01-28T10:22:28;94861.13;;;3.04;84.53
5691;BME280;2870;42.680;23.364;2023-01-28T10:24:58;94859.09;;;2.75;84.68
5691;BME280;2870;42.680;23.364;2023-01-28T10:27:31;94851.59;;;2.28;85.03
5691;BME280;2870;42.680;23.364;2023-01-28T10:29:59;94859.03;;;2.86;85.74
5691;BME280;2870;42.680;23.364;2023-01-28T10:32:37;94865.69;;;3.02;84.82
5691;BME280;2870;42.680;23.364;2023-01-28T10:35:11;94864.03;;;2.87;85.06
5691;BME280;2870;42.680;23.364;2023-01-28T10:37:39;94860.13;;;2.30;85.19
5691;BME280;2870;42.680;23.364;2023-01-28T10:40:11;94865.34;;;2.45;85.62
5691;BME280;2870;42.680;23.364;2023-01-28T10:42:39;94862.31;;;2.43;85.01
5691;BME280;2870;42.680;23.364;2023-01-28T10:45:12;94855.69;;;2.93;85.15
5691;BME280;2870;42.680;23.364;2023-01-28T10:47:45;94864.38;;;2.37;85.05
5691;BME280;2870;42.680;23.364;2023-01-28T10:50:19;94856.22;;;2.56;85.15
5691;BME280;2870;42.680;23.364;2023-01-28T10:52:55;94855.28;;;3.13;85.86
5691;BME280;2870;42.680;23.364;2023-01-28T10:55:23;94844.22;;;2.42;84.16
5691;BME280;2870;42.680;23.364;2023-01-28T10:57:52;94850.81;;;3.05;83.58
5691;BME280;2870;42.680;23.364;2023-01-28T11:00:26;94851.78;;;2.77;84.04
5691;BME280;2870;42.680;23.364;2023-01-28T11:02:55;94854.31;;;2.75;84.23
5691;BME280;2870;42.680;23.364;2023-01-28T11:05:25;94844.75;;;2.35;85.44
5691;BME280;2870;42.680;23.364;2023-01-28T11:08:02;94845.69;;;3.14;84.88
5691;BME280;2870;42.680;23.364;2023-01-28T11:10:31;94863.03;;;3.45;83.24
5691;BME280;2870;42.680;23.364;2023-01-28T11:13:00;94856.97;;;2.92;81.96
5691;BME280;2870;42.680;23.364;2023-01-28T11:15:27;94850.16;;;3.48;81.94
5691;BME280;2870;42.680;23.364;2023-01-28T11:17:57;94846.00;;;3.05;81.13
5691;BME280;2870;42.680;23.364;2023-01-28T11:20:27;94852.41;;;3.49;81.07
5691;BME280;2870;42.680;23.364;2023-01-28T11:22:55;94857.00;;;3.90;79.78
5691;BME280;2870;42.680;23.364;2023-01-28T11:25:27;94856.25;;;3.46;81.34
5691;BME280;2870;42.680;23.364;2023-01-28T11:27:56;94850.91;;;3.48;80.72
5691;BME280;2870;42.680;23.364;2023-01-28T11:30:25;94850.81;;;3.35;80.55
5691;BME280;2870;42.680;23.364;2023-01-28T11:32:57;94853.16;;;3.25;81.25
5691;BME280;2870;42.680;23.364;2023-01-28T11:35:29;94846.63;;;3.71;80.17
5691;BME280;2870;42.680;23.364;2023-01-28T11:37:57;94851.97;;;3.69;80.45
5691;BME280;2870;42.680;23.364;2023-01-28T11:40:24;94841.50;;;4.00;79.01
5691;BME280;2870;42.680;23.364;2023-01-28T11:42:52;94845.44;;;4.10;77.98
5691;BME280;2870;42.680;23.364;2023-01-28T11:45:27;94835.47;;;3.28;77.91
5691;BME280;2870;42.680;23.364;2023-01-28T11:48:13;94844.72;;;3.36;80.70
5691;BME280;2870;42.680;23.364;2023-01-28T11:50:47;94837.38;;;3.39;80.08
5691;BME280;2870;42.680;23.364;2023-01-28T11:56:16;94846.81;;;3.00;79.63
5691;BME280;2870;42.680;23.364;2023-01-28T11:58:52;94847.19;;;3.40;79.61
5691;BME280;2870;42.680;23.364;2023-01-28T12:01:29;94837.91;;;3.62;78.85
5691;BME280;2870;42.680;23.364;2023-01-28T12:04:17;94838.19;;;4.02;77.52
5691;BME280;2870;42.680;23.364;2023-01-28T12:07:04;94841.31;;;4.17;77.07
5691;BME280;2870;42.680;23.364;2023-01-28T12:09:39;94840.25;;;3.03;79.28
5691;BME280;2870;42.680;23.364;2023-01-28T12:12:30;94824.22;;;3.21;79.67
5691;BME280;2870;42.680;23.364;2023-01-28T12:15:19;94839.56;;;3.22;80.97
5691;BME280;2870;42.680;23.364;2023-01-28T12:17:59;94844.63;;;3.17;79.75
5691;BME280;2870;42.680;23.364;2023-01-28T12:20:34;94850.13;;;2.93;82.07
5691;BME280;2870;42.680;23.364;2023-01-28T12:23:14;94856.53;;;3.12;82.34
5691;BME280;2870;42.680;23.364;2023-01-28T12:25:54;94845.09;;;2.97;80.47
5691;BME280;2870;42.680;23.364;2023-01-28T12:28:33;94839.66;;;3.10;81.97
5691;BME280;2870;42.680;23.364;2023-01-28T12:31:13;94848.03;;;3.59;79.70
5691;BME280;2870;42.680;23.364;2023-01-28T12:33:57;94855.56;;;3.34;78.95
5691;BME280;2870;42.680;23.364;2023-01-28T12:36:41;94856.47;;;3.48;78.34
5691;BME280;2870;42.680;23.364;2023-01-28T12:39:19;94860.25;;;3.21;79.50
5691;BME280;2870;42.680;23.364;2023-01-28T12:41:50;94863.25;;;3.23;79.16
5691;BME280;2870;42.680;23.364;2023-01-28T12:44:23;94851.88;;;3.26;80.06
5691;BME280;2870;42.680;23.364;2023-01-28T12:46:56;94851.94;;;2.90;79.99
5691;BME280;2870;42.680;23.364;2023-01-28T12:49:29;94862.47;;;3.52;79.80
5691;BME280;2870;42.680;23.364;2023-01-28T12:52:01;94852.63;;;3.27;79.51
5691;BME280;2870;42.680;23.364;2023-01-28T12:54:35;94866.81;;;3.72;79.08
5691;BME280;2870;42.680;23.364;2023-01-28T12:57:08;94867.75;;;3.26;77.91
5691;BME280;2870;42.680;23.364;2023-01-28T12:59:41;94878.81;;;3.56;79.90
5691;BME280;2870;42.680;23.364;2023-01-28T13:02:20;94867.91;;;3.63;78.41
5691;BME280;2870;42.680;23.364;2023-01-28T13:04:53;94854.97;;;3.71;77.81
5691;BME280;2870;42.680;23.364;2023-01-28T13:07:25;94872.00;;;3.81;78.41
5691;BME280;2870;42.680;23.364;2023-01-28T13:09:59;94875.88;;;3.72;78.24
5691;BME280;2870;42.680;23.364;2023-01-28T13:12:30;94874.41;;;3.90;76.60
5691;BME280;2870;42.680;23.364;2023-01-28T13:14:58;94881.31;;;3.84;77.02
5691;BME280;2870;42.680;23.364;2023-01-28T13:17:27;94887.38;;;3.58;77.65
5691;BME280;2870;42.680;23.364;2023-01-28T13:19:55;94875.81;;;3.54;78.63
5691;BME280;2870;42.680;23.364;2023-01-28T13:22:29;94894.06;;;2.78;79.44
5691;BME280;2870;42.680;23.364;2023-01-28T13:25:12;94883.09;;;3.02;78.60
5691;BME280;2870;42.680;23.364;2023-01-28T13:27:53;94884.88;;;3.30;78.03
5691;BME280;2870;42.680;23.364;2023-01-28T13:30:25;94888.75;;;3.45;78.89
5691;BME280;2870;42.680;23.364;2023-01-28T13:32:56;94896.03;;;3.49;77.15
5691;BME280;2870;42.680;23.364;2023-01-28T13:35:32;94895.28;;;3.48;78.71
5691;BME280;2870;42.680;23.364;2023-01-28T13:38:06;94892.47;;;3.78;78.79
5691;BME280;2870;42.680;23.364;2023-01-28T13:40:35;94902.09;;;4.20;76.91
5691;BME280;2870;42.680;23.364;2023-01-28T13:43:04;94889.63;;;4.27;76.06